Mayo, Canada
Current Conditions -  °F | °C
As of 1:00 PM on Saturday 25 Oct 2014 (Local Time) from CYMA Reporting Station
Light Snow Light Snow  
Wind Chill: 27°   Ceiling: 2000
Heat Index: 27°   Visibility: 10mi
Dew Point: 21°   Wind: 0mph
Humidity: 80%   Direction: NA
Pressure: 29.87"   Gusts: NA
Location:  63.6°N, 135.88°W
Report Text: CYMA 252000Z 00000KT 10SM -SN BKN020 M03/M06 A2987 RMK SC7 SLP148
Loading
Personal Weather Stations






























Interactive Weather Map New forecast layout! Learn more

10-Day Weather Forecast

Advertisements
Track Severe Weather on mobile